Time;durP1;ratioP1;P1;durP2;ratioP2;P2;SDS_P1;SDS_P2;PMS_P1;PMS_P2;Temp;Humidity;BMP_temperature;BMP_pressure;BME280_temperature;BME280_humidity;BME280_pressure;Samples;Min_cycle;Max_cycle;Signal;HPM_P1;HPM_P2
2022/03/01 00:03:58;;;;;;;24.27;9.80;;;-7.20;99.90;;;;;;8342634;28;20249;-63
2022/03/01 00:07:59;;;;;;;23.67;11.33;;;-7.30;99.90;;;;;;8343716;28;20221;-65
2022/03/01 00:12:00;;;;;;;21.03;10.63;;;-7.30;99.90;;;;;;8331353;28;20244;-64
2022/03/01 00:16:01;;;;;;;18.97;10.10;;;-7.30;99.90;;;;;;8348184;28;20247;-64
2022/03/01 00:20:05;;;;;;;26.03;11.53;;;-7.30;99.90;;;;;;8343815;28;20237;-64
2022/03/01 00:24:06;;;;;;;21.00;9.47;;;-7.30;99.90;;;;;;8324432;28;20214;-64
2022/03/01 00:28:07;;;;;;;27.13;11.27;;;-7.30;99.90;;;;;;8348199;28;20205;-63
2022/03/01 00:32:09;;;;;;;20.30;11.23;;;-7.40;99.90;;;;;;8345233;28;20205;-64
2022/03/01 00:36:10;;;;;;;25.50;11.63;;;-7.40;99.90;;;;;;8347567;28;20218;-64
2022/03/01 00:40:11;;;;;;;22.43;10.73;;;-7.40;99.90;;;;;;8331524;28;20212;-64
2022/03/01 00:44:12;;;;;;;25.33;9.63;;;-7.50;99.90;;;;;;8349995;28;20201;-63
2022/03/01 00:48:13;;;;;;;26.70;11.60;;;-7.50;99.90;;;;;;8331593;28;20211;-64
2022/03/01 00:52:14;;;;;;;29.00;11.93;;;-7.50;99.90;;;;;;8332463;28;20208;-64
2022/03/01 00:56:15;;;;;;;30.40;12.87;;;-7.40;99.90;;;;;;8331692;28;20316;-65
2022/03/01 01:00:16;;;;;;;26.67;13.30;;;-7.30;99.90;;;;;;8330028;28;20209;-65
2022/03/01 01:04:17;;;;;;;32.10;13.17;;;-7.40;99.90;;;;;;8330922;28;20487;-63
2022/03/01 01:08:18;;;;;;;27.93;12.63;;;-7.40;99.90;;;;;;8349461;28;20273;-64
2022/03/01 01:12:19;;;;;;;34.83;14.30;;;-7.40;99.90;;;;;;8351034;28;20205;-64
2022/03/01 01:16:20;;;;;;;27.00;12.73;;;-7.40;99.90;;;;;;8355496;28;20213;-64
2022/03/01 01:20:21;;;;;;;34.10;13.80;;;-7.40;99.90;;;;;;8353744;28;20200;-64
2022/03/01 01:24:22;;;;;;;23.13;12.90;;;-7.40;99.90;;;;;;8343226;28;20202;-63
2022/03/01 01:28:22;;;;;;;29.83;12.60;;;-7.40;99.90;;;;;;8333198;28;20670;-63
2022/03/01 01:32:23;;;;;;;29.50;13.03;;;-7.40;99.90;;;;;;8346715;28;20209;-63
2022/03/01 01:36:25;;;;;;;29.87;12.47;;;-7.40;99.90;;;;;;8335269;28;20213;-63
2022/03/01 01:40:29;;;;;;;34.13;12.17;;;-7.50;99.90;;;;;;8328389;28;20198;-63
2022/03/01 01:44:31;;;;;;;28.97;13.10;;;-7.60;99.90;;;;;;8330632;28;20205;-65
2022/03/01 01:48:32;;;;;;;20.90;11.37;;;-7.70;99.90;;;;;;8335650;28;20209;-63
2022/03/01 01:52:33;;;;;;;23.17;10.77;;;-7.80;99.90;;;;;;8337260;28;20217;-63
2022/03/01 01:56:33;;;;;;;30.33;13.27;;;-7.80;99.90;;;;;;8354031;28;20379;-64
2022/03/01 02:00:34;;;;;;;40.33;14.90;;;-7.80;99.90;;;;;;8348385;28;20213;-64
2022/03/01 02:04:35;;;;;;;37.07;13.80;;;-7.80;99.90;;;;;;8343470;28;20208;-63
2022/03/01 02:08:36;;;;;;;24.20;11.23;;;-7.80;99.90;;;;;;8363962;28;20608;-63
2022/03/01 02:12:37;;;;;;;31.93;11.93;;;-7.90;99.90;;;;;;8335208;28;20228;-64
2022/03/01 02:16:39;;;;;;;22.30;9.97;;;-7.90;99.90;;;;;;8353434;28;20213;-63
2022/03/01 02:20:40;;;;;;;19.00;10.43;;;-7.90;99.90;;;;;;8334950;28;20283;-63
2022/03/01 02:24:41;;;;;;;20.53;9.63;;;-7.90;99.90;;;;;;8335093;28;20202;-63
2022/03/01 02:28:41;;;;;;;26.03;12.20;;;-8.00;99.90;;;;;;8351172;28;20210;-64
2022/03/01 02:32:42;;;;;;;25.27;13.03;;;-8.00;99.90;;;;;;8349937;28;20216;-64
2022/03/01 02:36:43;;;;;;;27.87;14.13;;;-7.90;99.90;;;;;;8328128;28;20296;-63
2022/03/01 02:40:44;;;;;;;25.93;12.50;;;-7.90;99.90;;;;;;8331233;28;20205;-64
2022/03/01 02:44:44;;;;;;;25.87;12.80;;;-7.90;99.90;;;;;;8327494;28;20209;-64
2022/03/01 02:48:45;;;;;;;24.43;13.50;;;-7.90;99.90;;;;;;8325937;28;20300;-64
2022/03/01 02:52:46;;;;;;;24.70;11.67;;;-7.90;99.90;;;;;;8351829;28;20236;-64
2022/03/01 02:56:47;;;;;;;24.63;12.77;;;-8.00;99.90;;;;;;8331845;28;20213;-65
2022/03/01 03:00:48;;;;;;;31.27;12.63;;;-8.00;99.90;;;;;;8349081;28;20213;-63
2022/03/01 03:04:49;;;;;;;24.87;10.93;;;-8.00;99.90;;;;;;8334408;28;20202;-65
2022/03/01 03:08:50;;;;;;;22.30;12.30;;;-8.00;99.90;;;;;;8334372;28;20202;-64
2022/03/01 03:12:51;;;;;;;30.07;13.63;;;-8.10;99.90;;;;;;8329069;28;20521;-63
2022/03/01 03:16:52;;;;;;;21.70;10.77;;;-8.10;99.90;;;;;;8351535;28;20257;-65
2022/03/01 03:20:53;;;;;;;22.33;10.30;;;-8.10;99.90;;;;;;8325404;28;20205;-64
2022/03/01 03:24:54;;;;;;;21.60;10.97;;;-8.10;99.90;;;;;;8350273;28;20205;-63
2022/03/01 03:28:54;;;;;;;21.73;10.70;;;-8.10;99.90;;;;;;8330510;28;20217;-64
2022/03/01 03:32:55;;;;;;;28.53;12.00;;;-8.10;99.90;;;;;;8350980;28;20207;-65
2022/03/01 03:36:56;;;;;;;24.20;10.90;;;-8.10;99.90;;;;;;8330067;28;20239;-64
2022/03/01 03:40:57;;;;;;;32.67;12.43;;;-8.10;99.90;;;;;;8328595;28;20504;-63
2022/03/01 03:44:58;;;;;;;28.07;12.43;;;-8.00;99.90;;;;;;8330252;28;20206;-64
2022/03/01 03:48:59;;;;;;;26.90;12.40;;;-7.90;99.90;;;;;;8342879;28;20225;-63
2022/03/01 03:52:59;;;;;;;23.37;11.53;;;-7.90;99.90;;;;;;8332725;28;20252;-63
2022/03/01 03:57:07;;;;;;;31.00;13.13;;;-7.90;99.90;;;;;;8332946;28;20221;-64
2022/03/01 04:01:08;;;;;;;21.50;11.70;;;-7.90;99.90;;;;;;8338576;28;20201;-64
2022/03/01 04:05:12;;;;;;;20.47;10.97;;;-8.00;99.90;;;;;;8344101;28;20209;-62
2022/03/01 04:09:14;;;;;;;23.63;11.07;;;-8.00;99.90;;;;;;8326017;28;20201;-61
2022/03/01 04:13:15;;;;;;;28.17;12.27;;;-8.10;99.90;;;;;;8344825;28;20194;-61
2022/03/01 04:17:15;;;;;;;26.63;11.17;;;-8.00;99.90;;;;;;8321722;28;20221;-61
2022/03/01 04:21:16;;;;;;;20.93;10.87;;;-8.10;99.90;;;;;;8341741;28;20301;-62
2022/03/01 04:25:17;;;;;;;25.37;12.33;;;-8.10;99.90;;;;;;8331191;28;20228;-62
2022/03/01 04:29:18;;;;;;;21.57;10.97;;;-8.20;99.90;;;;;;8345706;28;20293;-62
2022/03/01 04:33:19;;;;;;;26.07;11.20;;;-8.20;99.90;;;;;;8330979;28;20217;-63
2022/03/01 04:37:19;;;;;;;35.17;17.97;;;-8.30;99.90;;;;;;8326588;28;20308;-62
2022/03/01 04:41:20;;;;;;;35.37;17.47;;;-8.30;99.90;;;;;;8328017;28;20201;-61
2022/03/01 04:45:21;;;;;;;59.37;24.10;;;-8.30;99.90;;;;;;8321200;28;20211;-63
2022/03/01 04:49:22;;;;;;;50.57;28.03;;;-8.30;99.90;;;;;;8327487;28;20200;-62
2022/03/01 04:53:23;;;;;;;59.83;23.20;;;-8.30;99.90;;;;;;8322776;28;20320;-62
2022/03/01 04:57:24;;;;;;;44.40;18.57;;;-8.20;99.90;;;;;;8326864;28;20351;-62
2022/03/01 05:01:25;;;;;;;40.87;17.60;;;-8.20;99.90;;;;;;8326236;28;20205;-62
2022/03/01 05:05:26;;;;;;;32.63;16.80;;;-8.20;99.90;;;;;;8329068;28;20204;-62
2022/03/01 05:09:27;;;;;;;26.37;14.20;;;-8.20;99.90;;;;;;8323863;28;20232;-61
2022/03/01 05:13:29;;;;;;;25.73;11.50;;;-8.10;99.90;;;;;;8346471;28;20208;-61
2022/03/01 05:17:29;;;;;;;29.80;11.90;;;-8.10;99.90;;;;;;8348174;28;20228;-62
2022/03/01 05:21:30;;;;;;;31.20;14.57;;;-8.10;99.90;;;;;;8340243;28;20201;-62
2022/03/01 05:25:31;;;;;;;33.13;12.43;;;-8.20;99.90;;;;;;8341714;28;20205;-61
2022/03/01 05:29:32;;;;;;;38.80;17.70;;;-8.30;99.90;;;;;;8343615;28;20240;-63
2022/03/01 05:33:33;;;;;;;37.03;15.57;;;-8.40;99.90;;;;;;8330063;28;20209;-61
2022/03/01 05:37:33;;;;;;;43.10;17.33;;;-8.40;99.90;;;;;;8326076;28;20218;-61
2022/03/01 05:41:34;;;;;;;31.77;13.57;;;-8.40;99.90;;;;;;8344294;28;20209;-62
2022/03/01 05:45:35;;;;;;;24.70;12.00;;;-8.50;99.90;;;;;;8347297;28;20245;-60
2022/03/01 05:49:37;;;;;;;38.77;15.47;;;-8.50;99.90;;;;;;8329446;28;20224;-61
2022/03/01 05:53:37;;;;;;;28.80;13.97;;;-8.50;99.90;;;;;;8340400;28;20204;-62
2022/03/01 05:57:39;;;;;;;30.23;12.87;;;-8.60;99.90;;;;;;8344336;28;20221;-61
2022/03/01 06:01:40;;;;;;;23.70;12.50;;;-8.60;99.90;;;;;;8323520;28;20240;-63
2022/03/01 06:05:40;;;;;;;22.30;10.47;;;-8.50;99.90;;;;;;8352402;28;20285;-61
2022/03/01 06:09:41;;;;;;;20.60;10.60;;;-8.50;99.90;;;;;;8347889;28;20212;-60
2022/03/01 06:13:43;;;;;;;32.00;12.63;;;-8.40;99.90;;;;;;8347565;28;20200;-61
2022/03/01 06:17:44;;;;;;;26.90;12.57;;;-8.30;99.90;;;;;;8327293;28;20237;-61
2022/03/01 06:21:45;;;;;;;31.93;16.63;;;-8.20;99.90;;;;;;8340635;28;20201;-63
2022/03/01 06:25:46;;;;;;;34.87;17.00;;;-8.10;99.90;;;;;;8343945;28;20227;-61
2022/03/01 06:29:47;;;;;;;41.73;18.30;;;-8.00;99.90;;;;;;8328871;28;20233;-62
2022/03/01 06:33:48;;;;;;;48.50;18.37;;;-7.80;99.90;;;;;;8332973;28;20317;-62
2022/03/01 06:37:48;;;;;;;48.60;22.10;;;-7.80;99.90;;;;;;8334302;28;20236;-62
2022/03/01 06:41:50;;;;;;;42.37;19.27;;;-7.70;99.90;;;;;;8351813;28;20206;-63
2022/03/01 06:45:51;;;;;;;43.37;18.50;;;-7.60;99.90;;;;;;8321499;28;20212;-62
2022/03/01 06:49:52;;;;;;;38.30;19.33;;;-7.50;99.90;;;;;;8349438;28;20224;-63
2022/03/01 06:53:53;;;;;;;35.30;17.10;;;-7.40;99.90;;;;;;8327806;28;20205;-63
2022/03/01 06:57:55;;;;;;;55.33;23.43;;;-7.20;99.90;;;;;;8327473;28;20233;-62
2022/03/01 07:01:56;;;;;;;84.03;32.90;;;-7.10;99.90;;;;;;8329365;28;20224;-62
2022/03/01 07:05:56;;;;;;;72.17;33.77;;;-6.90;99.90;;;;;;8350348;28;20205;-63
2022/03/01 07:09:57;;;;;;;83.70;34.30;;;-6.80;99.90;;;;;;8333161;28;20300;-62
2022/03/01 07:13:58;;;;;;;108.00;44.50;;;-6.50;99.90;;;;;;8351385;28;20205;-63
2022/03/01 07:17:59;;;;;;;101.20;40.43;;;-6.30;99.90;;;;;;8333535;28;20232;-63
2022/03/01 07:22:00;;;;;;;99.20;42.03;;;-6.20;99.90;;;;;;8334311;28;20209;-62
2022/03/01 07:26:07;;;;;;;113.60;44.93;;;-6.00;99.90;;;;;;8334697;28;20233;-64
2022/03/01 07:30:08;;;;;;;101.67;41.47;;;-5.60;99.90;;;;;;8351403;28;20211;-63
2022/03/01 07:34:09;;;;;;;120.90;51.67;;;-5.20;99.90;;;;;;8352308;28;20218;-65
2022/03/01 07:38:10;;;;;;;113.10;50.13;;;-4.90;99.90;;;;;;8351238;28;20235;-62
2022/03/01 07:42:11;;;;;;;91.73;38.60;;;-4.50;99.90;;;;;;8351026;28;20212;-63
2022/03/01 07:46:13;;;;;;;96.27;38.20;;;-4.20;99.90;;;;;;8345820;28;20295;-63
2022/03/01 07:50:14;;;;;;;85.33;39.73;;;-3.80;99.90;;;;;;8328828;28;20216;-63
2022/03/01 07:54:15;;;;;;;89.70;39.50;;;-3.50;99.90;;;;;;8327673;28;20614;-64
2022/03/01 07:58:15;;;;;;;82.00;38.27;;;-3.20;99.90;;;;;;8345232;28;20221;-63
2022/03/01 08:02:16;;;;;;;81.50;38.67;;;-2.90;99.90;;;;;;8347518;28;20243;-63
2022/03/01 08:06:17;;;;;;;81.03;40.50;;;-2.60;99.90;;;;;;8330440;28;20292;-65
2022/03/01 08:10:18;;;;;;;94.43;47.53;;;-2.40;99.90;;;;;;8330052;28;20205;-64
2022/03/01 08:14:19;;;;;;;85.47;44.73;;;-2.20;99.90;;;;;;8328560;28;20210;-65
2022/03/01 08:18:20;;;;;;;87.90;44.80;;;-2.00;99.90;;;;;;8342394;28;20686;-64
2022/03/01 08:22:21;;;;;;;80.97;42.97;;;-1.70;99.90;;;;;;8337511;28;20210;-64
2022/03/01 08:26:22;;;;;;;72.00;38.07;;;-1.50;99.90;;;;;;8344873;28;20221;-64
2022/03/01 08:30:23;;;;;;;76.40;39.17;;;-1.40;99.90;;;;;;8347072;28;20208;-64
2022/03/01 08:34:24;;;;;;;77.20;43.93;;;-1.20;99.90;;;;;;8325089;28;20266;-64
2022/03/01 08:38:26;;;;;;;90.10;44.27;;;-0.90;99.90;;;;;;8328331;28;20226;-64
2022/03/01 08:42:27;;;;;;;66.67;33.80;;;-0.60;99.90;;;;;;8331684;28;20211;-64
2022/03/01 08:46:27;;;;;;;39.77;21.40;;;-0.30;99.90;;;;;;8348640;28;20227;-63
2022/03/01 08:50:28;;;;;;;32.97;19.37;;;0.20;99.90;;;;;;8350386;28;20275;-63
2022/03/01 08:54:29;;;;;;;26.63;15.63;;;0.70;99.90;;;;;;8327784;28;20224;-65
2022/03/01 08:58:30;;;;;;;27.70;14.63;;;1.00;99.30;;;;;;8343973;28;20237;-64
2022/03/01 09:02:31;;;;;;;27.43;14.50;;;1.30;1.00;;;;;;8323646;28;20209;-64
2022/03/01 09:06:32;;;;;;;26.50;13.67;;;1.70;99.90;;;;;;8326450;28;20383;-64
2022/03/01 09:10:33;;;;;;;25.93;14.10;;;1.90;1.00;;;;;;8338125;28;20213;-64
2022/03/01 09:14:34;;;;;;;25.23;13.10;;;2.20;99.90;;;;;;8348146;28;20240;-64
2022/03/01 09:18:35;;;;;;;22.77;12.47;;;2.40;99.90;;;;;;8332580;28;20343;-63
2022/03/01 09:22:36;;;;;;;20.77;11.60;;;2.70;1.00;;;;;;8349636;28;20206;-64
2022/03/01 09:26:37;;;;;;;26.57;13.93;;;2.80;99.90;;;;;;8345361;28;20205;-64
2022/03/01 09:30:37;;;;;;;21.57;11.10;;;2.80;99.90;;;;;;8331535;28;20224;-65
2022/03/01 09:34:38;;;;;;;18.83;10.73;;;2.80;99.90;;;;;;8331231;28;20214;-64
2022/03/01 09:38:40;;;;;;;19.93;12.13;;;3.00;99.90;;;;;;8334033;28;20221;-64
2022/03/01 09:42:42;;;;;;;22.50;12.00;;;3.10;99.90;;;;;;8359504;28;20537;-65
2022/03/01 09:46:44;;;;;;;25.70;13.67;;;3.30;99.90;;;;;;8333592;28;20214;-63
2022/03/01 09:50:46;;;;;;;23.77;12.33;;;3.40;99.90;;;;;;8334021;28;20245;-66
2022/03/01 09:54:50;;;;;;;19.50;11.13;;;3.50;99.90;;;;;;8341356;28;20297;-65
2022/03/01 09:58:51;;;;;;;21.93;12.33;;;3.60;99.90;;;;;;8331583;28;20379;-64
2022/03/01 10:02:56;;;;;;;22.43;14.73;;;3.70;99.90;;;;;;8353861;28;20618;-65
2022/03/01 10:06:57;;;;;;;29.30;19.27;;;3.70;99.90;;;;;;8337715;28;20324;-64
2022/03/01 10:10:58;;;;;;;30.70;17.80;;;3.80;99.90;;;;;;8332940;28;20227;-64
2022/03/01 10:15:04;;;;;;;25.33;15.37;;;3.90;99.90;;;;;;8344099;28;20226;-64
2022/03/01 10:19:10;;;;;;;24.27;13.83;;;4.00;99.90;;;;;;8330653;28;20212;-64
2022/03/01 10:23:12;;;;;;;19.27;10.40;;;4.20;99.90;;;;;;8343419;28;20209;-65
2022/03/01 10:27:13;;;;;;;19.83;10.97;;;4.20;73.80;;;;;;8341839;28;20208;-64
2022/03/01 10:31:28;;;;;;;18.17;11.07;;;4.20;1.40;;;;;;8358390;28;20215;-62
2022/03/01 10:35:29;;;;;;;19.23;11.13;;;4.30;54.60;;;;;;8338308;28;20335;-63
2022/03/01 10:39:31;;;;;;;18.90;14.13;;;4.40;2.00;;;;;;8360924;28;20253;-65
2022/03/01 10:43:32;;;;;;;17.37;12.77;;;4.50;1.00;;;;;;8359221;28;20268;-64
2022/03/01 10:47:33;;;;;;;23.13;11.07;;;4.60;1.00;;;;;;8341412;28;20570;-64
2022/03/01 10:51:46;;;;;;;13.90;7.37;;;4.70;1.00;;;;;;8334017;28;20361;-64
2022/03/01 10:55:47;;;;;;;10.07;6.00;;;4.70;1.00;;;;;;8359406;28;20221;-64
2022/03/01 10:59:49;;;;;;;13.03;6.93;;;4.80;1.00;;;;;;8357428;28;20702;-64
2022/03/01 11:03:51;;;;;;;16.30;10.13;;;4.80;1.00;;;;;;8351763;28;20238;-63
2022/03/01 11:07:52;;;;;;;15.60;9.10;;;4.90;1.00;;;;;;8348326;28;20206;-66
2022/03/01 11:11:56;;;;;;;15.90;10.87;;;4.90;1.00;;;;;;8340511;28;20243;-64
2022/03/01 11:15:57;;;;;;;17.10;11.60;;;5.00;1.00;;;;;;8361832;28;20221;-64
2022/03/01 11:20:27;;;;;;;19.60;10.53;;;5.20;1.00;;;;;;8356848;28;20216;-63
2022/03/01 11:24:28;;;;;;;22.30;10.73;;;5.30;1.00;;;;;;8357272;28;20212;-64
2022/03/01 11:28:39;;;;;;;14.83;8.93;;;5.40;1.00;;;;;;8344909;28;20194;-64
2022/03/01 11:32:46;;;;;;;17.60;10.20;;;5.50;1.00;;;;;;8358083;28;20462;-63
2022/03/01 11:36:57;;;;;;;13.80;9.67;;;5.60;1.00;;;;;;8328955;28;20215;-64
2022/03/01 11:41:19;;;;;;;16.23;9.40;;;5.60;1.00;;;;;;8345078;28;20225;-63
2022/03/01 11:45:31;;;;;;;16.83;9.90;;;5.70;99.90;;;;;;8346013;28;20213;-63
2022/03/01 11:49:40;;;;;;;14.50;9.13;;;5.70;99.90;;;;;;8330413;28;20240;-64
2022/03/01 11:53:45;;;;;;;17.30;9.53;;;5.70;99.90;;;;;;8333708;28;20217;-63
2022/03/01 11:57:46;;;;;;;16.53;9.43;;;5.70;99.90;;;;;;8335547;28;20236;-62
2022/03/01 12:01:47;;;;;;;18.47;10.30;;;5.70;99.90;;;;;;8331940;28;20214;-62
2022/03/01 12:05:49;;;;;;;12.40;7.60;;;5.80;99.90;;;;;;8358129;28;20282;-63
2022/03/01 12:09:56;;;;;;;12.93;6.50;;;5.80;99.90;;;;;;8340382;28;20224;-63
2022/03/01 12:14:03;;;;;;;15.13;7.47;;;5.70;99.90;;;;;;8327654;28;20201;-63
2022/03/01 12:18:17;;;;;;;13.33;7.10;;;5.70;99.90;;;;;;8358590;28;20221;-64
2022/03/01 12:22:18;;;;;;;15.97;8.17;;;5.60;99.90;;;;;;8326028;28;20206;-64
2022/03/01 12:26:19;;;;;;;15.97;9.07;;;5.70;99.90;;;;;;8338848;28;20289;-63
2022/03/01 12:30:21;;;;;;;14.00;7.57;;;5.80;99.90;;;;;;8338389;28;20201;-63
2022/03/01 12:34:27;;;;;;;21.03;10.83;;;5.90;99.90;;;;;;8343690;28;20210;-63
2022/03/01 12:38:29;;;;;;;16.00;8.73;;;6.00;99.90;;;;;;8343337;28;20230;-62
2022/03/01 12:42:30;;;;;;;10.27;6.97;;;6.00;99.90;;;;;;8360699;28;20209;-64
2022/03/01 12:46:32;;;;;;;10.50;7.03;;;6.10;99.90;;;;;;8341653;28;20206;-63
2022/03/01 12:50:33;;;;;;;10.30;5.60;;;6.10;99.90;;;;;;8343534;28;20294;-63
2022/03/01 12:54:35;;;;;;;8.70;6.03;;;6.20;99.90;;;;;;8330588;28;20209;-64
2022/03/01 12:58:35;;;;;;;12.10;6.70;;;6.30;99.90;;;;;;8333451;28;20233;-64
2022/03/01 13:02:36;;;;;;;13.13;9.00;;;6.20;99.90;;;;;;8340197;28;20229;-63
2022/03/01 13:06:39;;;;;;;11.67;6.40;;;6.20;99.90;;;;;;8353981;28;20201;-64
2022/03/01 13:10:39;;;;;;;14.30;6.97;;;6.20;99.90;;;;;;8346748;28;20205;-63
2022/03/01 13:14:40;;;;;;;9.47;6.40;;;6.30;99.90;;;;;;8346666;28;20205;-62
2022/03/01 13:18:41;;;;;;;9.77;6.20;;;6.30;99.90;;;;;;8345552;28;20320;-63
2022/03/01 13:22:43;;;;;;;12.53;5.80;;;6.20;99.90;;;;;;8358188;28;20202;-64
2022/03/01 13:26:45;;;;;;;10.50;6.33;;;6.20;99.90;;;;;;8331780;28;20191;-66
2022/03/01 13:30:49;;;;;;;10.40;6.00;;;6.20;99.90;;;;;;8348167;28;20227;-63
2022/03/01 13:35:07;;;;;;;8.50;6.40;;;6.20;99.90;;;;;;8346722;28;20206;-64
2022/03/01 13:39:13;;;;;;;14.43;7.50;;;6.20;99.90;;;;;;8364787;28;20210;-63
2022/03/01 13:43:23;;;;;;;8.57;6.27;;;6.20;99.90;;;;;;8355453;28;20201;-64
2022/03/01 13:47:33;;;;;;;11.60;7.23;;;6.20;99.90;;;;;;8334339;28;20201;-64
2022/03/01 13:51:35;;;;;;;21.97;12.47;;;6.20;99.90;;;;;;8341369;28;20232;-64
2022/03/01 13:55:37;;;;;;;12.80;8.17;;;6.20;99.90;;;;;;8362131;28;20221;-64
2022/03/01 13:59:38;;;;;;;28.93;14.07;;;6.20;99.90;;;;;;8346687;28;20218;-63
2022/03/01 14:03:41;;;;;;;11.63;7.23;;;6.20;99.90;;;;;;8345602;28;20213;-63
2022/03/01 14:07:42;;;;;;;10.07;6.30;;;6.20;99.90;;;;;;8333437;28;20225;-63
2022/03/01 14:11:59;;;;;;;9.20;5.70;;;6.20;99.90;;;;;;8345123;28;20268;-65
2022/03/01 14:16:07;;;;;;;10.37;5.77;;;6.10;99.90;;;;;;8345216;28;20245;-64
2022/03/01 14:20:08;;;;;;;9.47;6.17;;;6.00;99.90;;;;;;8346002;28;20216;-64
2022/03/01 14:24:09;;;;;;;8.67;6.53;;;6.00;99.90;;;;;;8347884;28;20204;-65
2022/03/01 14:28:10;;;;;;;10.50;6.80;;;6.00;99.90;;;;;;8343340;28;20213;-64
2022/03/01 14:32:12;;;;;;;9.43;6.50;;;5.90;99.90;;;;;;8321203;28;20210;-63
2022/03/01 14:36:15;;;;;;;11.13;6.23;;;5.90;99.90;;;;;;8338518;28;20212;-64
2022/03/01 14:40:16;;;;;;;13.20;6.90;;;5.70;99.90;;;;;;8334008;28;20279;-64
2022/03/01 14:44:17;;;;;;;20.20;11.40;;;5.70;99.90;;;;;;8353484;28;20277;-64
2022/03/01 14:48:18;;;;;;;24.43;12.93;;;5.70;99.90;;;;;;8345108;28;20197;-63
2022/03/01 14:52:19;;;;;;;38.73;18.77;;;5.70;99.90;;;;;;8348160;28;20206;-64
2022/03/01 14:56:21;;;;;;;17.20;10.33;;;5.70;99.90;;;;;;8342265;28;20222;-65
2022/03/01 15:00:22;;;;;;;26.43;13.63;;;5.70;99.90;;;;;;8354104;28;20220;-64
2022/03/01 15:04:24;;;;;;;30.33;16.33;;;5.60;99.90;;;;;;8341203;28;20254;-63
2022/03/01 15:08:26;;;;;;;15.93;10.17;;;5.60;99.90;;;;;;8346353;28;20221;-63
2022/03/01 15:12:27;;;;;;;12.23;7.80;;;5.50;99.90;;;;;;8347529;28;20275;-64
2022/03/01 15:16:29;;;;;;;12.73;9.77;;;5.40;99.90;;;;;;8344834;28;20218;-64
2022/03/01 15:20:31;;;;;;;14.53;9.77;;;5.30;99.90;;;;;;8347670;28;20197;-65
2022/03/01 15:24:32;;;;;;;14.83;8.83;;;5.20;99.90;;;;;;8346764;28;20205;-64
2022/03/01 15:28:34;;;;;;;18.73;13.20;;;5.20;99.90;;;;;;8363531;28;20202;-63
2022/03/01 15:32:35;;;;;;;20.50;12.00;;;5.10;99.90;;;;;;8346690;28;20209;-64
2022/03/01 15:36:37;;;;;;;14.67;9.97;;;5.00;99.90;;;;;;8346059;28;20278;-65
2022/03/01 15:40:37;;;;;;;17.63;11.07;;;4.80;99.90;;;;;;8347362;28;20205;-64
2022/03/01 15:44:40;;;;;;;17.90;10.53;;;4.70;99.90;;;;;;8347819;28;20208;-64
2022/03/01 15:48:41;;;;;;;10.23;6.97;;;4.60;99.90;;;;;;8354799;28;20324;-63
2022/03/01 15:52:45;;;;;;;12.43;7.87;;;4.50;99.90;;;;;;8364775;28;20282;-64
2022/03/01 15:56:47;;;;;;;12.33;8.30;;;4.30;99.90;;;;;;8331932;28;20228;-64
2022/03/01 16:00:49;;;;;;;17.80;10.30;;;4.20;99.90;;;;;;8346454;28;20217;-65
2022/03/01 16:04:53;;;;;;;15.03;7.87;;;4.00;99.90;;;;;;8344476;28;20212;-64
2022/03/01 16:08:54;;;;;;;11.03;7.10;;;3.90;99.90;;;;;;8347596;28;20265;-65
2022/03/01 16:12:55;;;;;;;12.80;7.13;;;3.70;99.90;;;;;;8348380;28;20199;-65
2022/03/01 16:16:56;;;;;;;18.87;9.47;;;3.50;99.90;;;;;;8347614;28;20226;-64
2022/03/01 16:20:58;;;;;;;26.27;13.67;;;3.30;1.00;;;;;;8348504;28;20206;-64
2022/03/01 16:25:02;;;;;;;49.77;27.70;;;3.10;1.00;;;;;;8347720;28;20281;-64
2022/03/01 16:29:04;;;;;;;67.43;41.43;;;2.80;1.00;;;;;;8348649;28;20198;-63
2022/03/01 16:33:06;;;;;;;37.43;20.07;;;2.60;1.00;;;;;;8348285;28;20256;-64
2022/03/01 16:37:07;;;;;;;22.27;13.00;;;2.30;1.00;;;;;;8347702;28;20226;-64
2022/03/01 16:41:08;;;;;;;13.50;8.63;;;2.00;1.10;;;;;;8347706;28;20295;-64
2022/03/01 16:45:11;;;;;;;22.30;16.43;;;1.60;99.90;;;;;;8346670;28;20210;-64
2022/03/01 16:49:12;;;;;;;40.10;19.10;;;1.30;99.90;;;;;;8347054;28;20213;-64
2022/03/01 16:53:14;;;;;;;20.20;10.70;;;1.00;99.90;;;;;;8329684;28;20239;-65
2022/03/01 16:57:17;;;;;;;21.50;8.87;;;0.80;99.90;;;;;;8347621;28;20220;-65
2022/03/01 17:01:18;;;;;;;21.13;12.10;;;0.60;1.00;;;;;;8347169;28;20214;-65
2022/03/01 17:05:19;;;;;;;18.90;11.27;;;0.40;1.00;;;;;;8347217;28;20212;-64
2022/03/01 17:09:20;;;;;;;11.83;8.23;;;0.30;1.00;;;;;;8348033;28;20195;-64
2022/03/01 17:13:21;;;;;;;12.13;8.47;;;0.20;1.00;;;;;;8347204;28;20197;-64
2022/03/01 17:17:22;;;;;;;12.97;8.77;;;0.00;27.60;;;;;;8347240;28;20221;-64
2022/03/01 17:21:24;;;;;;;14.10;8.07;;;-0.20;99.90;;;;;;8346512;28;20199;-64
2022/03/01 17:25:33;;;;;;;18.07;10.57;;;-0.40;99.90;;;;;;8346858;28;20293;-64
2022/03/01 17:29:34;;;;;;;18.17;9.93;;;-0.40;99.90;;;;;;8346841;28;20232;-64
2022/03/01 17:33:35;;;;;;;15.70;9.17;;;-0.60;99.90;;;;;;8346971;28;20197;-64
2022/03/01 17:37:36;;;;;;;19.37;9.93;;;-0.70;99.90;;;;;;8346817;28;20228;-64
2022/03/01 17:41:39;;;;;;;17.73;9.40;;;-0.90;1.00;;;;;;8346759;28;20196;-64
2022/03/01 17:45:40;;;;;;;15.13;8.33;;;-1.10;1.00;;;;;;8346805;28;20198;-64
2022/03/01 17:49:41;;;;;;;13.30;7.13;;;-1.30;57.80;;;;;;8346571;28;20257;-64
2022/03/01 17:53:42;;;;;;;14.53;8.40;;;-1.40;99.90;;;;;;8347456;28;20193;-63
2022/03/01 17:57:43;;;;;;;19.40;11.43;;;-1.60;99.90;;;;;;8350946;28;20226;-64
2022/03/01 18:01:44;;;;;;;30.13;14.43;;;-1.70;1.00;;;;;;8352256;28;20213;-65
2022/03/01 18:05:45;;;;;;;26.93;12.03;;;-1.80;1.00;;;;;;8335456;28;20215;-65
2022/03/01 18:09:46;;;;;;;23.90;11.07;;;-2.00;86.70;;;;;;8351375;28;20209;-66
2022/03/01 18:13:48;;;;;;;21.07;10.47;;;-2.10;99.90;;;;;;8351379;28;20201;-66
2022/03/01 18:17:50;;;;;;;15.17;8.00;;;-2.20;99.90;;;;;;8344917;28;20225;-66
2022/03/01 18:21:51;;;;;;;14.63;7.83;;;-2.30;98.90;;;;;;8348275;28;20206;-66
2022/03/01 18:25:55;;;;;;;11.63;6.73;;;-2.50;1.00;;;;;;8348018;28;20206;-66
2022/03/01 18:29:56;;;;;;;13.17;6.73;;;-2.60;99.90;;;;;;8346320;28;20225;-65
2022/03/01 18:33:59;;;;;;;15.57;8.30;;;-2.70;99.90;;;;;;8347313;28;20292;-66
2022/03/01 18:38:01;;;;;;;15.70;9.23;;;-2.80;99.90;;;;;;8346590;28;20271;-66
2022/03/01 18:42:03;;;;;;;15.30;8.10;;;-2.90;99.90;;;;;;8364891;28;20206;-66
2022/03/01 18:46:04;;;;;;;12.00;7.17;;;-3.00;1.00;;;;;;8346501;28;20230;-65
2022/03/01 18:50:08;;;;;;;16.13;7.47;;;-3.10;99.90;;;;;;8367013;28;20278;-65
2022/03/01 18:54:09;;;;;;;13.80;7.63;;;-3.10;1.00;;;;;;8348626;28;20208;-65
2022/03/01 18:58:10;;;;;;;12.97;8.63;;;-3.20;99.90;;;;;;8349802;28;20317;-65
2022/03/01 19:02:11;;;;;;;15.30;7.37;;;-3.30;99.90;;;;;;8329247;28;20222;-66
2022/03/01 19:06:15;;;;;;;12.80;7.17;;;-3.30;69.70;;;;;;8339690;28;20212;-65
2022/03/01 19:10:19;;;;;;;29.43;12.83;;;-3.40;99.90;;;;;;8352926;28;20205;-65
2022/03/01 19:14:20;;;;;;;34.97;14.63;;;-3.50;1.00;;;;;;8348420;28;20206;-65
2022/03/01 19:18:21;;;;;;;24.60;11.43;;;-3.50;99.90;;;;;;8364436;28;20221;-64
2022/03/01 19:22:23;;;;;;;19.53;8.70;;;-3.60;99.90;;;;;;8365929;28;20212;-65
2022/03/01 19:26:24;;;;;;;18.53;8.80;;;-3.70;1.00;;;;;;8349384;28;20209;-65
2022/03/01 19:30:25;;;;;;;15.50;8.23;;;-3.80;99.90;;;;;;8348743;28;20343;-65
2022/03/01 19:34:27;;;;;;;14.93;8.63;;;-3.80;99.90;;;;;;8347664;28;20279;-65
2022/03/01 19:38:28;;;;;;;19.47;9.73;;;-3.90;1.00;;;;;;8347400;28;20285;-65
2022/03/01 19:42:29;;;;;;;25.17;13.63;;;-3.90;1.00;;;;;;8347390;28;20221;-65
2022/03/01 19:46:30;;;;;;;25.40;13.53;;;-4.00;99.90;;;;;;8332042;28;20292;-64
2022/03/01 19:50:31;;;;;;;24.47;12.23;;;-4.00;99.90;;;;;;8347398;28;20263;-65
2022/03/01 19:54:33;;;;;;;25.57;10.80;;;-4.00;99.90;;;;;;8348254;28;20213;-65
2022/03/01 19:58:34;;;;;;;25.17;12.10;;;-4.00;1.00;;;;;;8347647;28;20225;-65
2022/03/01 20:02:35;;;;;;;31.37;14.23;;;-4.10;1.00;;;;;;8347411;28;20296;-65
2022/03/01 20:06:36;;;;;;;27.40;12.90;;;-4.20;1.00;;;;;;8347366;28;20206;-65
2022/03/01 20:10:38;;;;;;;20.77;10.73;;;-4.30;1.00;;;;;;8346586;28;20296;-64
2022/03/01 20:14:44;;;;;;;30.47;12.53;;;-4.30;1.00;;;;;;8347181;28;20220;-65
2022/03/01 20:18:45;;;;;;;74.80;30.63;;;-4.40;5.70;;;;;;8328477;28;20236;-65
2022/03/01 20:22:49;;;;;;;55.33;24.97;;;-4.40;99.90;;;;;;8342014;28;20217;-64
2022/03/01 20:26:50;;;;;;;37.90;17.73;;;-4.40;99.90;;;;;;8347258;28;20208;-64
2022/03/01 20:30:52;;;;;;;32.37;14.70;;;-4.40;99.90;;;;;;8347271;28;20218;-64
2022/03/01 20:34:55;;;;;;;22.23;11.70;;;-4.60;99.90;;;;;;8346840;28;20281;-64
2022/03/01 20:39:00;;;;;;;38.63;18.17;;;-4.60;99.90;;;;;;8364712;28;20285;-64
2022/03/01 20:43:02;;;;;;;30.63;14.53;;;-4.60;99.90;;;;;;8346922;28;20216;-64